Time,TemperatureF,DewpointF,PressureIn,WindDirection,WindDirectionDegrees,WindSpeedMPH,WindSpeedGustMPH,Humidity,HourlyPrecipIn,Conditions,Clouds,dailyrainin,SoftwareType,DateUTC
2013-01-29 00:00:00,21.0,17.2,29.55,East,90,2.0,6.0,85,0.00,,,0.00,Weather View 32 v70,2013-01-29 05:00:00,
2013-01-29 00:03:00,21.0,17.2,29.58,East,90,2.0,6.0,85,0.00,,,0.00,Weather View 32 v70,2013-01-29 05:03:00,
2013-01-29 00:08:00,21.0,17.2,29.57,East,90,1.0,6.0,85,0.00,,,0.00,Weather View 32 v70,2013-01-29 05:08:00,
2013-01-29 00:13:00,21.0,17.2,29.57,East,90,0.0,6.0,85,0.00,,,0.00,Weather View 32 v70,2013-01-29 05:13:00,
2013-01-29 00:18:00,21.0,17.2,29.57,North,360,3.0,6.0,85,0.00,,,0.00,Weather View 32 v70,2013-01-29 05:18:00,
2013-01-29 00:23:00,21.0,17.2,29.57,North,360,3.0,6.0,85,0.00,,,0.00,Weather View 32 v70,2013-01-29 05:23:00,
2013-01-29 00:28:00,21.0,17.2,29.57,North,360,0.0,6.0,85,0.00,,,0.00,Weather View 32 v70,2013-01-29 05:28:00,
2013-01-29 00:33:00,21.0,17.2,29.57,NNE,22,2.0,6.0,85,0.00,,,0.00,Weather View 32 v70,2013-01-29 05:33:00,
2013-01-29 00:38:00,20.0,16.5,29.56,NE,45,3.0,6.0,86,0.00,,,0.00,Weather View 32 v70,2013-01-29 05:38:00,
2013-01-29 00:43:00,20.0,16.2,29.56,NNE,22,2.0,6.0,85,0.00,,,0.00,Weather View 32 v70,2013-01-29 05:43:00,
2013-01-29 00:48:00,20.0,16.2,29.56,NNE,22,0.0,6.0,85,0.00,,,0.00,Weather View 32 v70,2013-01-29 05:48:00,
2013-01-29 00:53:00,20.0,16.5,29.56,NNE,22,2.0,5.0,86,0.00,,,0.00,Weather View 32 v70,2013-01-29 05:53:00,
2013-01-29 00:58:00,20.0,16.5,29.56,NNE,22,0.0,5.0,86,0.00,,,0.00,Weather View 32 v70,2013-01-29 05:58:00,
2013-01-29 01:03:00,20.0,16.5,29.56,NNW,337,4.0,5.0,86,0.00,,,0.00,Weather View 32 v70,2013-01-29 06:03:00,
2013-01-29 01:08:00,20.0,16.5,29.56,NNW,337,3.0,5.0,86,0.00,,,0.00,Weather View 32 v70,2013-01-29 06:08:00,
2013-01-29 01:13:00,20.0,16.5,29.56,NNW,337,1.0,5.0,86,0.00,,,0.00,Weather View 32 v70,2013-01-29 06:13:00,
2013-01-29 01:18:00,20.0,16.5,29.57,NW,315,3.0,5.0,86,0.00,,,0.00,Weather View 32 v70,2013-01-29 06:18:00,
2013-01-29 01:23:00,20.0,16.5,29.56,North,360,0.0,5.0,86,0.00,,,0.00,Weather View 32 v70,2013-01-29 06:23:00,
2013-01-29 01:28:00,20.0,16.5,29.57,NNW,337,2.0,5.0,86,0.00,,,0.00,Weather View 32 v70,2013-01-29 06:28:00,
2013-01-29 01:33:00,20.0,16.5,29.58,NNW,337,0.0,5.0,86,0.00,,,0.00,Weather View 32 v70,2013-01-29 06:33:00,
2013-01-29 01:38:00,20.0,16.5,29.58,North,360,3.0,5.0,86,0.00,,,0.00,Weather View 32 v70,2013-01-29 06:38:00,
2013-01-29 01:43:00,19.0,16.0,29.58,NW,315,1.0,6.0,88,0.00,,,0.00,Weather View 32 v70,2013-01-29 06:43:00,
2013-01-29 01:48:00,19.0,15.8,29.58,NNW,337,0.0,6.0,87,0.00,,,0.00,Weather View 32 v70,2013-01-29 06:48:00,
2013-01-29 01:53:00,19.0,15.5,29.58,NW,315,4.0,6.0,86,0.00,,,0.00,Weather View 32 v70,2013-01-29 06:53:00,
2013-01-29 01:58:00,19.0,14.7,29.58,NNW,337,0.0,6.0,83,0.00,,,0.00,Weather View 32 v70,2013-01-29 06:58:00,
2013-01-29 02:03:00,19.0,14.4,29.58,NW,315,4.0,6.0,82,0.00,,,0.00,Weather View 32 v70,2013-01-29 07:03:00,
2013-01-29 02:08:00,19.0,13.3,29.59,NNW,337,4.0,7.0,78,0.00,,,0.00,Weather View 32 v70,2013-01-29 07:08:00,
2013-01-29 02:13:00,20.0,14.2,29.56,NNW,337,5.0,7.0,78,0.00,,,0.00,Weather View 32 v70,2013-01-29 07:13:00,
2013-01-29 02:18:00,19.0,13.3,29.59,WNW,292,1.0,7.0,78,0.00,,,0.00,Weather View 32 v70,2013-01-29 07:18:00,
2013-01-29 02:23:00,19.0,13.0,29.58,NNW,337,2.0,7.0,77,0.00,,,0.00,Weather View 32 v70,2013-01-29 07:23:00,
2013-01-29 02:28:00,19.0,13.0,29.58,NNW,337,3.0,7.0,77,0.00,,,0.00,Weather View 32 v70,2013-01-29 07:28:00,
2013-01-29 02:33:00,19.0,12.4,29.58,NNW,337,2.0,7.0,75,0.00,,,0.00,Weather View 32 v70,2013-01-29 07:33:00,
2013-01-29 02:38:00,19.0,12.1,29.58,NW,315,0.0,7.0,74,0.00,,,0.00,Weather View 32 v70,2013-01-29 07:38:00,
2013-01-29 02:43:00,19.0,12.1,29.58,NNE,22,1.0,7.0,74,0.00,,,0.00,Weather View 32 v70,2013-01-29 07:43:00,
2013-01-29 02:48:00,19.0,11.8,29.58,North,360,3.0,7.0,73,0.00,,,0.00,Weather View 32 v70,2013-01-29 07:48:00,
2013-01-29 02:53:00,19.0,11.8,29.57,North,360,1.0,7.0,73,0.00,,,0.00,Weather View 32 v70,2013-01-29 07:53:00,
2013-01-29 02:58:00,18.0,11.1,29.57,NNE,22,3.0,7.0,74,0.00,,,0.00,Weather View 32 v70,2013-01-29 07:58:00,
2013-01-29 03:03:00,18.0,11.1,29.56,North,360,1.0,7.0,74,0.00,,,0.00,Weather View 32 v70,2013-01-29 08:03:00,
2013-01-29 03:08:00,18.0,11.1,29.56,North,360,2.0,6.0,74,0.00,,,0.00,Weather View 32 v70,2013-01-29 08:08:00,
2013-01-29 03:13:00,18.0,11.4,29.56,North,360,1.0,6.0,75,0.00,,,0.00,Weather View 32 v70,2013-01-29 08:13:00,
2013-01-29 03:18:00,18.0,11.7,29.55,North,360,2.0,6.0,76,0.00,,,0.00,Weather View 32 v70,2013-01-29 08:18:00,
2013-01-29 03:23:00,17.0,11.0,29.55,North,360,2.0,6.0,77,0.00,,,0.00,Weather View 32 v70,2013-01-29 08:23:00,
2013-01-29 03:28:00,17.0,11.0,29.54,North,360,0.0,6.0,77,0.00,,,0.00,Weather View 32 v70,2013-01-29 08:28:00,
2013-01-29 03:33:00,17.0,11.0,29.54,North,360,0.0,6.0,77,0.00,,,0.00,Weather View 32 v70,2013-01-29 08:33:00,
2013-01-29 03:38:00,16.0,10.6,29.54,North,360,1.0,6.0,79,0.00,,,0.00,Weather View 32 v70,2013-01-29 08:38:00,
2013-01-29 03:43:00,16.0,10.9,29.55,North,360,2.0,6.0,80,0.00,,,0.00,Weather View 32 v70,2013-01-29 08:43:00,
2013-01-29 03:48:00,16.0,11.8,29.55,North,360,1.0,6.0,83,0.00,,,0.00,Weather View 32 v70,2013-01-29 08:48:00,
2013-01-29 03:53:00,16.0,11.8,29.55,North,360,1.0,6.0,83,0.00,,,0.00,Weather View 32 v70,2013-01-29 08:53:00,
2013-01-29 03:58:00,16.0,12.0,29.55,North,360,1.0,5.0,84,0.00,,,0.00,Weather View 32 v70,2013-01-29 08:58:00,
2013-01-29 04:03:00,16.0,12.3,29.55,North,360,0.0,5.0,85,0.00,,,0.00,Weather View 32 v70,2013-01-29 09:03:00,
2013-01-29 04:08:00,15.0,11.3,29.54,North,360,2.0,3.0,85,0.00,,,0.00,Weather View 32 v70,2013-01-29 09:08:00,
2013-01-29 04:13:00,15.0,11.6,29.54,North,360,2.0,3.0,86,0.00,,,0.00,Weather View 32 v70,2013-01-29 09:13:00,
2013-01-29 04:18:00,15.0,12.1,29.54,North,360,2.0,3.0,88,0.00,,,0.00,Weather View 32 v70,2013-01-29 09:18:00,
2013-01-29 04:23:00,15.0,12.3,29.54,North,360,0.0,3.0,89,0.00,,,0.00,Weather View 32 v70,2013-01-29 09:23:00,
2013-01-29 04:28:00,14.0,11.1,29.54,North,360,1.0,3.0,88,0.00,,,0.00,Weather View 32 v70,2013-01-29 09:28:00,
2013-01-29 04:33:00,14.0,11.4,29.53,North,360,0.0,3.0,89,0.00,,,0.00,Weather View 32 v70,2013-01-29 09:33:00,
2013-01-29 04:38:00,14.0,11.9,29.53,North,360,1.0,3.0,91,0.00,,,0.00,Weather View 32 v70,2013-01-29 09:38:00,
2013-01-29 04:43:00,14.0,12.1,29.53,North,360,2.0,3.0,92,0.00,,,0.00,Weather View 32 v70,2013-01-29 09:43:00,
2013-01-29 04:48:00,14.0,12.4,29.53,North,360,2.0,3.0,93,0.00,,,0.00,Weather View 32 v70,2013-01-29 09:48:00,
2013-01-29 04:53:00,14.0,12.6,29.53,North,360,1.0,3.0,94,0.00,,,0.00,Weather View 32 v70,2013-01-29 09:53:00,
2013-01-29 04:58:00,14.0,13.1,29.53,North,360,3.0,3.0,96,0.00,,,0.00,Weather View 32 v70,2013-01-29 09:58:00,
2013-01-29 05:03:00,14.0,12.8,29.53,North,360,2.0,3.0,95,0.00,,,0.00,Weather View 32 v70,2013-01-29 10:03:00,
2013-01-29 05:08:00,14.0,12.6,29.54,North,360,0.0,3.0,94,0.00,,,0.00,Weather View 32 v70,2013-01-29 10:08:00,
2013-01-29 05:13:00,13.0,11.4,29.53,North,360,0.0,3.0,93,0.00,,,0.00,Weather View 32 v70,2013-01-29 10:13:00,
2013-01-29 05:18:00,13.0,11.6,29.52,North,360,0.0,3.0,94,0.00,,,0.00,Weather View 32 v70,2013-01-29 10:18:00,
2013-01-29 05:23:00,13.0,11.6,29.53,North,360,1.0,3.0,94,0.00,,,0.00,Weather View 32 v70,2013-01-29 10:23:00,
2013-01-29 05:28:00,13.0,11.8,29.53,North,360,0.0,3.0,95,0.00,,,0.00,Weather View 32 v70,2013-01-29 10:28:00,
2013-01-29 05:33:00,12.0,11.1,29.52,North,360,1.0,3.0,96,0.00,,,0.00,Weather View 32 v70,2013-01-29 10:33:00,
2013-01-29 05:38:00,12.0,11.3,29.49,North,360,1.0,3.0,97,0.00,,,0.00,Weather View 32 v70,2013-01-29 10:38:00,
2013-01-29 05:43:00,12.0,11.5,29.53,North,360,1.0,3.0,98,0.00,,,0.00,Weather View 32 v70,2013-01-29 10:43:00,
2013-01-29 05:48:00,12.0,11.5,29.55,North,360,1.0,3.0,98,0.00,,,0.00,Weather View 32 v70,2013-01-29 10:48:00,
2013-01-29 05:53:00,12.0,11.5,29.55,North,360,0.0,3.0,98,0.00,,,0.00,Weather View 32 v70,2013-01-29 10:53:00,
2013-01-29 05:58:00,13.0,12.8,29.54,North,360,1.0,3.0,99,0.00,,,0.00,Weather View 32 v70,2013-01-29 10:58:00,
2013-01-29 06:03:00,13.0,12.8,29.53,North,360,1.0,3.0,99,0.00,,,0.00,Weather View 32 v70,2013-01-29 11:03:00,
2013-01-29 06:08:00,12.0,12.0,29.53,North,360,1.0,3.0,100,0.00,,,0.00,Weather View 32 v70,2013-01-29 11:08:00,
2013-01-29 06:13:00,12.0,12.0,29.53,North,360,2.0,3.0,100,0.00,,,0.00,Weather View 32 v70,2013-01-29 11:13:00,
2013-01-29 06:18:00,12.0,12.0,29.53,North,360,1.0,3.0,100,0.00,,,0.00,Weather View 32 v70,2013-01-29 11:18:00,
2013-01-29 06:23:00,12.0,12.0,29.54,NNW,337,2.0,5.0,100,0.00,,,0.00,Weather View 32 v70,2013-01-29 11:23:00,
2013-01-29 06:28:00,12.0,12.0,29.52,NNW,337,3.0,5.0,100,0.00,,,0.00,Weather View 32 v70,2013-01-29 11:28:00,
2013-01-29 06:33:00,12.0,12.0,29.54,NNW,337,1.0,5.0,100,0.00,,,0.00,Weather View 32 v70,2013-01-29 11:33:00,
2013-01-29 06:38:00,12.0,12.0,29.53,NNW,337,1.0,5.0,100,0.00,,,0.00,Weather View 32 v70,2013-01-29 11:38:00,
2013-01-29 06:44:00,12.0,12.0,29.53,NNW,337,0.0,5.0,100,0.00,,,0.00,Weather View 32 v70,2013-01-29 11:44:00,
2013-01-29 06:48:00,12.0,12.0,29.53,NNE,22,1.0,6.0,100,0.00,,,0.00,Weather View 32 v70,2013-01-29 11:48:00,
2013-01-29 06:53:00,11.0,11.0,29.53,North,360,0.0,6.0,100,0.00,,,0.00,Weather View 32 v70,2013-01-29 11:53:00,
2013-01-29 06:58:00,11.0,11.0,29.53,North,360,2.0,6.0,100,0.00,,,0.00,Weather View 32 v70,2013-01-29 11:58:00,
2013-01-29 07:04:00,11.0,11.0,29.53,NNE,22,0.0,6.0,100,0.00,,,0.00,Weather View 32 v70,2013-01-29 12:04:00,
2013-01-29 07:09:00,11.0,11.0,29.54,NNE,22,4.0,6.0,100,0.00,,,0.00,Weather View 32 v70,2013-01-29 12:09:00,
2013-01-29 07:14:00,11.0,11.0,29.53,North,360,2.0,6.0,100,0.00,,,0.00,Weather View 32 v70,2013-01-29 12:14:00,
2013-01-29 07:18:00,11.0,11.0,29.53,NE,45,1.0,6.0,100,0.00,,,0.00,Weather View 32 v70,2013-01-29 12:18:00,
2013-01-29 07:23:00,12.0,12.0,29.54,NNW,337,0.0,6.0,100,0.00,,,0.00,Weather View 32 v70,2013-01-29 12:23:00,
2013-01-29 07:29:00,12.0,12.0,29.54,NNW,337,0.0,6.0,100,0.00,,,0.00,Weather View 32 v70,2013-01-29 12:29:00,
2013-01-29 07:34:00,13.0,13.0,29.55,NNW,337,0.0,6.0,100,0.00,,,0.00,Weather View 32 v70,2013-01-29 12:34:00,
2013-01-29 07:39:00,13.0,13.0,29.56,NNW,337,0.0,6.0,100,0.00,,,0.00,Weather View 32 v70,2013-01-29 12:39:00,
2013-01-29 07:44:00,14.0,14.0,29.57,NNW,337,0.0,6.0,100,0.00,,,0.00,Weather View 32 v70,2013-01-29 12:44:00,
2013-01-29 07:49:00,14.0,14.0,29.57,NNW,337,0.0,6.0,100,0.00,,,0.00,Weather View 32 v70,2013-01-29 12:49:00,
2013-01-29 07:54:00,15.0,15.0,29.59,North,360,2.0,6.0,100,0.00,,,0.00,Weather View 32 v70,2013-01-29 12:54:00,
2013-01-29 07:58:00,16.0,16.0,29.59,NNE,22,1.0,6.0,100,0.00,,,0.00,Weather View 32 v70,2013-01-29 12:58:00,
2013-01-29 08:03:00,16.0,16.0,29.61,WNW,292,4.0,5.0,100,0.00,,,0.00,Weather View 32 v70,2013-01-29 13:03:00,
2013-01-29 08:08:00,17.0,16.8,29.62,North,360,0.0,6.0,99,0.00,,,0.00,Weather View 32 v70,2013-01-29 13:08:00,
2013-01-29 08:14:00,17.0,16.5,29.63,WSW,247,1.0,6.0,98,0.00,,,0.00,Weather View 32 v70,2013-01-29 13:14:00,
2013-01-29 08:19:00,18.0,17.1,29.64,WNW,292,4.0,6.0,96,0.00,,,0.00,Weather View 32 v70,2013-01-29 13:19:00,
2013-01-29 08:23:00,18.0,16.1,29.66,SW,225,2.0,6.0,92,0.00,,,0.00,Weather View 32 v70,2013-01-29 13:23:00,
2013-01-29 08:29:00,18.0,15.8,29.65,North,360,4.0,8.0,91,0.00,,,0.00,Weather View 32 v70,2013-01-29 13:29:00,
2013-01-29 08:34:00,18.0,15.3,29.66,WNW,292,5.0,8.0,89,0.00,,,0.00,Weather View 32 v70,2013-01-29 13:34:00,
2013-01-29 08:39:00,19.0,16.0,29.66,NNE,22,1.0,8.0,88,0.00,,,0.00,Weather View 32 v70,2013-01-29 13:39:00,
2013-01-29 08:43:00,20.0,16.2,29.68,NNW,337,5.0,8.0,85,0.00,,,0.00,Weather View 32 v70,2013-01-29 13:43:00,
2013-01-29 08:48:00,20.0,15.7,29.70,NW,315,5.0,8.0,83,0.00,,,0.00,Weather View 32 v70,2013-01-29 13:48:00,
2013-01-29 08:53:00,20.0,15.1,29.70,NNW,337,4.0,8.0,81,0.00,,,0.00,Weather View 32 v70,2013-01-29 13:53:00,
2013-01-29 08:59:00,21.0,14.6,29.70,NNW,337,7.0,8.0,76,0.00,,,0.00,Weather View 32 v70,2013-01-29 13:59:00,
2013-01-29 09:04:00,22.0,15.0,29.70,NNW,337,6.0,8.0,74,0.00,,,0.00,Weather View 32 v70,2013-01-29 14:04:00,
2013-01-29 09:09:00,22.0,14.7,29.71,NW,315,5.0,8.0,73,0.00,,,0.00,Weather View 32 v70,2013-01-29 14:09:00,
2013-01-29 09:13:00,23.0,15.0,29.71,West,270,6.0,8.0,71,0.00,,,0.00,Weather View 32 v70,2013-01-29 14:13:00,
2013-01-29 09:18:00,23.0,15.0,29.71,NE,45,6.0,8.0,71,0.00,,,0.00,Weather View 32 v70,2013-01-29 14:18:00,
2013-01-29 09:24:00,24.0,15.3,29.71,NW,315,2.0,8.0,69,0.00,,,0.00,Weather View 32 v70,2013-01-29 14:24:00,
2013-01-29 09:29:00,24.0,14.6,29.72,NE,45,0.0,9.0,67,0.00,,,0.00,Weather View 32 v70,2013-01-29 14:29:00,
2013-01-29 09:34:00,24.0,15.3,29.72,NE,45,6.0,9.0,69,0.00,,,0.00,Weather View 32 v70,2013-01-29 14:34:00,
2013-01-29 09:38:00,25.0,15.6,29.71,NNW,337,5.0,9.0,67,0.00,,,0.00,Weather View 32 v70,2013-01-29 14:38:00,
2013-01-29 09:43:00,25.0,14.9,29.72,North,360,3.0,9.0,65,0.00,,,0.00,Weather View 32 v70,2013-01-29 14:43:00,
2013-01-29 09:48:00,25.0,14.5,29.71,NW,315,2.0,9.0,64,0.00,,,0.00,Weather View 32 v70,2013-01-29 14:48:00,
2013-01-29 09:54:00,27.0,15.3,29.72,NNE,22,3.0,9.0,61,0.00,,,0.00,Weather View 32 v70,2013-01-29 14:54:00,
2013-01-29 09:59:00,27.0,15.3,29.71,NW,315,3.0,9.0,61,0.00,,,0.00,Weather View 32 v70,2013-01-29 14:59:00,
2013-01-29 10:03:00,27.0,15.7,29.72,NNW,337,3.0,9.0,62,0.00,,,0.00,Weather View 32 v70,2013-01-29 15:03:00,
2013-01-29 10:08:00,28.0,15.9,29.72,NNW,337,4.0,9.0,60,0.00,,,0.00,Weather View 32 v70,2013-01-29 15:08:00,
2013-01-29 10:13:00,29.0,16.1,29.73,NNW,337,0.0,9.0,58,0.00,,,0.00,Weather View 32 v70,2013-01-29 15:13:00,
2013-01-29 10:18:00,31.0,17.5,29.73,North,360,2.0,9.0,57,0.00,,,0.00,Weather View 32 v70,2013-01-29 15:18:00,
2013-01-29 10:23:00,32.0,17.2,29.74,NNE,22,0.0,9.0,54,0.00,,,0.00,Weather View 32 v70,2013-01-29 15:23:00,
2013-01-29 10:29:00,32.0,16.8,29.75,North,360,2.0,7.0,53,0.00,,,0.00,Weather View 32 v70,2013-01-29 15:29:00,
2013-01-29 10:34:00,31.0,17.1,29.75,NW,315,0.0,7.0,56,0.00,,,0.00,Weather View 32 v70,2013-01-29 15:34:00,
2013-01-29 10:39:00,30.0,16.6,29.75,NE,45,6.0,7.0,57,0.00,,,0.00,Weather View 32 v70,2013-01-29 15:39:00,
2013-01-29 10:43:00,30.0,16.6,29.75,ESE,112,1.0,7.0,57,0.00,,,0.00,Weather View 32 v70,2013-01-29 15:43:00,
2013-01-29 10:48:00,31.0,16.7,29.76,NE,45,4.0,7.0,55,0.00,,,0.00,Weather View 32 v70,2013-01-29 15:48:00,
2013-01-29 10:53:00,32.0,18.9,29.76,ENE,67,0.0,7.0,58,0.00,,,0.00,Weather View 32 v70,2013-01-29 15:53:00,
2013-01-29 10:59:00,32.0,17.6,29.76,NNW,337,6.0,7.0,55,0.00,,,0.00,Weather View 32 v70,2013-01-29 15:59:00,
2013-01-29 11:04:00,33.0,19.8,29.76,West,270,1.0,7.0,58,0.00,,,0.00,Weather View 32 v70,2013-01-29 16:04:00,
2013-01-29 11:08:00,33.0,19.0,29.77,NNW,337,5.0,7.0,56,0.00,,,0.00,Weather View 32 v70,2013-01-29 16:08:00,
2013-01-29 11:13:00,34.0,19.1,29.77,North,360,1.0,7.0,54,0.00,,,0.00,Weather View 32 v70,2013-01-29 16:13:00,
2013-01-29 11:18:00,34.0,17.3,29.77,NW,315,8.0,8.0,50,0.00,,,0.00,Weather View 32 v70,2013-01-29 16:18:00,
2013-01-29 11:23:00,34.0,17.8,29.78,West,270,3.0,9.0,51,0.00,,,0.00,Weather View 32 v70,2013-01-29 16:23:00,
2013-01-29 11:29:00,34.0,19.1,29.78,WNW,292,4.0,9.0,54,0.00,,,0.00,Weather View 32 v70,2013-01-29 16:29:00,
2013-01-29 11:34:00,33.0,19.0,29.80,North,360,9.0,10.0,56,0.00,,,0.00,Weather View 32 v70,2013-01-29 16:34:00,
2013-01-29 11:38:00,34.0,18.2,29.80,ESE,112,1.0,10.0,52,0.00,,,0.00,Weather View 32 v70,2013-01-29 16:38:00,
2013-01-29 11:43:00,34.0,19.1,29.80,ENE,67,2.0,10.0,54,0.00,,,0.00,Weather View 32 v70,2013-01-29 16:43:00,
2013-01-29 11:49:00,34.0,18.2,29.80,WSW,247,1.0,10.0,52,0.00,,,0.00,Weather View 32 v70,2013-01-29 16:49:00,
2013-01-29 11:54:00,34.0,17.8,29.78,NNW,337,5.0,10.0,51,0.00,,,0.00,Weather View 32 v70,2013-01-29 16:54:00,
2013-01-29 11:59:00,35.0,16.8,29.79,WNW,292,6.0,10.0,47,0.00,,,0.00,Weather View 32 v70,2013-01-29 16:59:00,
2013-01-29 12:03:00,36.0,18.2,29.79,SW,225,0.0,10.0,48,0.00,,,0.00,Weather View 32 v70,2013-01-29 17:03:00,
2013-01-29 12:08:00,35.0,17.8,29.80,North,360,5.0,10.0,49,0.00,,,0.00,Weather View 32 v70,2013-01-29 17:08:00,
2013-01-29 12:13:00,34.0,16.8,29.80,NW,315,7.0,10.0,49,0.00,,,0.00,Weather View 32 v70,2013-01-29 17:13:00,
2013-01-29 12:18:00,35.0,16.8,29.80,SSW,202,1.0,10.0,47,0.00,,,0.00,Weather View 32 v70,2013-01-29 17:18:00,
2013-01-29 12:24:00,35.0,16.8,29.79,WNW,292,5.0,10.0,47,0.00,,,0.00,Weather View 32 v70,2013-01-29 17:24:00,
2013-01-29 12:29:00,35.0,17.3,29.79,North,360,3.0,10.0,48,0.00,,,0.00,Weather View 32 v70,2013-01-29 17:29:00,
2013-01-29 12:33:00,36.0,17.7,29.79,West,270,6.0,10.0,47,0.00,,,0.00,Weather View 32 v70,2013-01-29 17:33:00,
2013-01-29 12:38:00,36.0,17.7,29.79,North,360,10.0,10.0,47,0.00,,,0.00,Weather View 32 v70,2013-01-29 17:38:00,
2013-01-29 12:44:00,35.0,17.3,29.79,NW,315,7.0,12.0,48,0.00,,,0.00,Weather View 32 v70,2013-01-29 17:44:00,
2013-01-29 12:49:00,35.0,17.8,29.78,ESE,112,1.0,12.0,49,0.00,,,0.00,Weather View 32 v70,2013-01-29 17:49:00,
2013-01-29 12:54:00,35.0,17.3,29.78,NE,45,9.0,12.0,48,0.00,,,0.00,Weather View 32 v70,2013-01-29 17:54:00,
2013-01-29 12:58:00,35.0,17.8,29.78,NW,315,1.0,12.0,49,0.00,,,0.00,Weather View 32 v70,2013-01-29 17:58:00,
2013-01-29 13:04:00,36.0,17.2,29.78,WSW,247,1.0,12.0,46,0.00,,,0.00,Weather View 32 v70,2013-01-29 18:04:00,
2013-01-29 13:09:00,35.0,17.3,29.78,West,270,2.0,12.0,48,0.00,,,0.00,Weather View 32 v70,2013-01-29 18:09:00,
2013-01-29 13:14:00,35.0,16.8,29.78,NW,315,2.0,12.0,47,0.00,,,0.00,Weather View 32 v70,2013-01-29 18:14:00,
2013-01-29 13:19:00,36.0,17.2,29.77,East,90,2.0,12.0,46,0.00,,,0.00,Weather View 32 v70,2013-01-29 18:19:00,
2013-01-29 13:24:00,36.0,17.2,29.78,NNE,22,6.0,12.0,46,0.00,,,0.00,Weather View 32 v70,2013-01-29 18:24:00,
2013-01-29 13:29:00,35.0,16.8,29.77,North,360,0.0,12.0,47,0.00,,,0.00,Weather View 32 v70,2013-01-29 18:29:00,
2013-01-29 13:34:00,36.0,17.2,29.77,NNE,22,9.0,12.0,46,0.00,,,0.00,Weather View 32 v70,2013-01-29 18:34:00,
2013-01-29 13:39:00,34.0,16.4,29.76,NNE,22,5.0,12.0,48,0.00,,,0.00,Weather View 32 v70,2013-01-29 18:39:00,
2013-01-29 13:44:00,35.0,16.3,29.76,NNW,337,7.0,12.0,46,0.00,,,0.00,Weather View 32 v70,2013-01-29 18:44:00,
2013-01-29 13:49:00,35.0,16.8,29.76,NNE,22,6.0,12.0,47,0.00,,,0.00,Weather View 32 v70,2013-01-29 18:49:00,
2013-01-29 13:54:00,35.0,16.3,29.76,NE,45,6.0,12.0,46,0.00,,,0.00,Weather View 32 v70,2013-01-29 18:54:00,
2013-01-29 13:59:00,34.0,15.4,29.76,NNE,22,8.0,12.0,46,0.00,,,0.00,Weather View 32 v70,2013-01-29 18:59:00,
2013-01-29 14:04:00,34.0,15.4,29.76,NW,315,9.0,12.0,46,0.00,,,0.00,Weather View 32 v70,2013-01-29 19:04:00,
2013-01-29 14:09:00,35.0,15.3,29.76,NW,315,6.0,12.0,44,0.00,,,0.00,Weather View 32 v70,2013-01-29 19:09:00,
2013-01-29 14:14:00,35.0,15.8,29.76,ESE,112,3.0,12.0,45,0.00,,,0.00,Weather View 32 v70,2013-01-29 19:14:00,
2013-01-29 14:19:00,35.0,15.3,29.76,WNW,292,5.0,12.0,44,0.00,,,0.00,Weather View 32 v70,2013-01-29 19:19:00,
2013-01-29 14:24:00,35.0,15.8,29.78,North,360,7.0,12.0,45,0.00,,,0.00,Weather View 32 v70,2013-01-29 19:24:00,
2013-01-29 14:29:00,35.0,16.8,29.77,North,360,4.0,12.0,47,0.00,,,0.00,Weather View 32 v70,2013-01-29 19:29:00,
2013-01-29 14:34:00,35.0,17.8,29.78,NNW,337,4.0,12.0,49,0.00,,,0.00,Weather View 32 v70,2013-01-29 19:34:00,
2013-01-29 14:39:00,35.0,16.8,29.77,NNW,337,6.0,12.0,47,0.00,,,0.00,Weather View 32 v70,2013-01-29 19:39:00,
2013-01-29 14:44:00,35.0,17.3,29.78,North,360,5.0,12.0,48,0.00,,,0.00,Weather View 32 v70,2013-01-29 19:44:00,
2013-01-29 14:49:00,35.0,16.3,29.78,North,360,6.0,12.0,46,0.00,,,0.00,Weather View 32 v70,2013-01-29 19:49:00,
2013-01-29 14:54:00,35.0,17.8,29.80,NW,315,2.0,12.0,49,0.00,,,0.00,Weather View 32 v70,2013-01-29 19:54:00,
2013-01-29 14:58:00,35.0,17.3,29.79,NNW,337,6.0,10.0,48,0.00,,,0.00,Weather View 32 v70,2013-01-29 19:58:00,
2013-01-29 15:03:00,34.0,15.9,29.80,North,360,0.0,10.0,47,0.00,,,0.00,Weather View 32 v70,2013-01-29 20:03:00,
2013-01-29 15:08:00,35.0,16.3,29.80,NE,45,5.0,10.0,46,0.00,,,0.00,Weather View 32 v70,2013-01-29 20:08:00,
2013-01-29 15:13:00,34.0,15.9,29.78,NE,45,1.0,10.0,47,0.00,,,0.00,Weather View 32 v70,2013-01-29 20:13:00,
2013-01-29 15:18:00,34.0,15.9,29.78,NNE,22,2.0,10.0,47,0.00,,,0.00,Weather View 32 v70,2013-01-29 20:18:00,
2013-01-29 15:23:00,34.0,15.9,29.77,NE,45,3.0,10.0,47,0.00,,,0.00,Weather View 32 v70,2013-01-29 20:23:00,
2013-01-29 15:28:00,34.0,15.9,29.78,NE,45,3.0,10.0,47,0.00,,,0.00,Weather View 32 v70,2013-01-29 20:28:00,
2013-01-29 15:33:00,34.0,15.9,29.78,NE,45,0.0,10.0,47,0.00,,,0.00,Weather View 32 v70,2013-01-29 20:33:00,
2013-01-29 15:38:00,34.0,16.8,29.76,NE,45,1.0,9.0,49,0.00,,,0.00,Weather View 32 v70,2013-01-29 20:38:00,
2013-01-29 15:43:00,34.0,16.8,29.76,NE,45,1.0,9.0,49,0.00,,,0.00,Weather View 32 v70,2013-01-29 20:43:00,
2013-01-29 15:48:00,33.0,15.9,29.75,NE,45,3.0,9.0,49,0.00,,,0.00,Weather View 32 v70,2013-01-29 20:48:00,
2013-01-29 15:53:00,33.0,15.9,29.75,NE,45,2.0,7.0,49,0.00,,,0.00,Weather View 32 v70,2013-01-29 20:53:00,
2013-01-29 15:58:00,33.0,15.9,29.76,NE,45,1.0,7.0,49,0.00,,,0.00,Weather View 32 v70,2013-01-29 20:58:00,
2013-01-29 16:03:00,33.0,16.8,29.74,NE,45,2.0,7.0,51,0.00,,,0.00,Weather View 32 v70,2013-01-29 21:03:00,
2013-01-29 16:08:00,33.0,16.4,29.72,NNE,22,2.0,7.0,50,0.00,,,0.00,Weather View 32 v70,2013-01-29 21:08:00,
2013-01-29 16:13:00,33.0,16.4,29.74,NNE,22,0.0,6.0,50,0.00,,,0.00,Weather View 32 v70,2013-01-29 21:13:00,
2013-01-29 16:18:00,32.0,16.4,29.74,NNE,22,1.0,6.0,52,0.00,,,0.00,Weather View 32 v70,2013-01-29 21:18:00,
2013-01-29 16:23:00,32.0,16.8,29.73,NNE,22,0.0,6.0,53,0.00,,,0.00,Weather View 32 v70,2013-01-29 21:23:00,
2013-01-29 16:28:00,32.0,17.6,29.73,NNE,22,0.0,5.0,55,0.00,,,0.00,Weather View 32 v70,2013-01-29 21:28:00,
2013-01-29 16:33:00,31.0,17.9,29.73,NNE,22,0.0,4.0,58,0.00,,,0.00,Weather View 32 v70,2013-01-29 21:33:00,
2013-01-29 16:38:00,31.0,17.9,29.73,NNE,22,1.0,4.0,58,0.00,,,0.00,Weather View 32 v70,2013-01-29 21:38:00,
2013-01-29 16:43:00,30.0,17.8,29.73,NNE,22,0.0,4.0,60,0.00,,,0.00,Weather View 32 v70,2013-01-29 21:43:00,
2013-01-29 16:48:00,30.0,17.8,29.72,NNE,22,0.0,4.0,60,0.00,,,0.00,Weather View 32 v70,2013-01-29 21:48:00,
2013-01-29 16:53:00,29.0,17.6,29.74,NNE,22,0.0,4.0,62,0.00,,,0.00,Weather View 32 v70,2013-01-29 21:53:00,
2013-01-29 16:58:00,29.0,18.0,29.72,NNE,22,0.0,4.0,63,0.00,,,0.00,Weather View 32 v70,2013-01-29 21:58:00,
2013-01-29 17:03:00,29.0,18.0,29.72,NNE,22,0.0,4.0,63,0.00,,,0.00,Weather View 32 v70,2013-01-29 22:03:00,
2013-01-29 17:08:00,29.0,18.0,29.72,NNE,22,0.0,2.0,63,0.00,,,0.00,Weather View 32 v70,2013-01-29 22:08:00,
2013-01-29 17:13:00,28.0,18.1,29.72,NNE,22,0.0,2.0,66,0.00,,,0.00,Weather View 32 v70,2013-01-29 22:13:00,
2013-01-29 17:18:00,29.0,18.7,29.72,NNE,22,0.0,2.0,65,0.00,,,0.00,Weather View 32 v70,2013-01-29 22:18:00,
2013-01-29 17:23:00,29.0,18.7,29.71,NNE,22,1.0,2.0,65,0.00,,,0.00,Weather View 32 v70,2013-01-29 22:23:00,
2013-01-29 17:28:00,29.0,18.7,29.70,NNE,22,0.0,2.0,65,0.00,,,0.00,Weather View 32 v70,2013-01-29 22:28:00,
2013-01-29 17:33:00,29.0,18.3,29.70,NNE,22,0.0,2.0,64,0.00,,,0.00,Weather View 32 v70,2013-01-29 22:33:00,
2013-01-29 17:38:00,29.0,18.7,29.71,NNE,22,0.0,2.0,65,0.00,,,0.00,Weather View 32 v70,2013-01-29 22:38:00,
2013-01-29 17:43:00,29.0,19.4,29.72,NNE,22,0.0,2.0,67,0.00,,,0.00,Weather View 32 v70,2013-01-29 22:43:00,
2013-01-29 17:48:00,28.0,18.5,29.71,NNE,22,0.0,2.0,67,0.00,,,0.00,Weather View 32 v70,2013-01-29 22:48:00,
2013-01-29 17:53:00,28.0,18.8,29.72,NNE,22,0.0,2.0,68,0.00,,,0.00,Weather View 32 v70,2013-01-29 22:53:00,
2013-01-29 17:58:00,28.0,19.1,29.71,NNE,22,0.0,2.0,69,0.00,,,0.00,Weather View 32 v70,2013-01-29 22:58:00,
2013-01-29 18:03:00,28.0,19.1,29.71,NNE,22,0.0,2.0,69,0.00,,,0.00,Weather View 32 v70,2013-01-29 23:03:00,
2013-01-29 18:08:00,28.0,19.8,29.71,NNE,22,0.0,2.0,71,0.00,,,0.00,Weather View 32 v70,2013-01-29 23:08:00,
2013-01-29 18:13:00,28.0,19.5,29.71,WSW,247,2.0,2.0,70,0.00,,,0.00,Weather View 32 v70,2013-01-29 23:13:00,
2013-01-29 18:18:00,28.0,20.1,29.71,WSW,247,0.0,3.0,72,0.00,,,0.00,Weather View 32 v70,2013-01-29 23:18:00,
2013-01-29 18:23:00,27.0,19.2,29.72,WSW,247,0.0,3.0,72,0.00,,,0.00,Weather View 32 v70,2013-01-29 23:23:00,
2013-01-29 18:28:00,27.0,19.2,29.72,WSW,247,0.0,3.0,72,0.00,,,0.00,Weather View 32 v70,2013-01-29 23:28:00,
2013-01-29 18:33:00,27.0,19.2,29.72,WSW,247,0.0,3.0,72,0.00,,,0.00,Weather View 32 v70,2013-01-29 23:33:00,
2013-01-29 18:38:00,26.0,18.9,29.72,WSW,247,0.0,3.0,74,0.00,,,0.00,Weather View 32 v70,2013-01-29 23:38:00,
2013-01-29 18:43:00,26.0,19.5,29.72,WSW,247,0.0,3.0,76,0.00,,,0.00,Weather View 32 v70,2013-01-29 23:43:00,
2013-01-29 18:48:00,26.0,19.8,29.73,WSW,247,0.0,3.0,77,0.00,,,0.00,Weather View 32 v70,2013-01-29 23:48:00,
2013-01-29 18:53:00,26.0,20.4,29.73,WSW,247,0.0,3.0,79,0.00,,,0.00,Weather View 32 v70,2013-01-29 23:53:00,
2013-01-29 18:58:00,26.0,20.4,29.72,WSW,247,0.0,3.0,79,0.00,,,0.00,Weather View 32 v70,2013-01-29 23:58:00,
2013-01-29 19:03:00,26.0,20.4,29.72,WSW,247,0.0,3.0,79,0.00,,,0.00,Weather View 32 v70,2013-01-30 00:03:00,
2013-01-29 19:08:00,26.0,20.4,29.71,WSW,247,2.0,3.0,79,0.00,,,0.00,Weather View 32 v70,2013-01-30 00:08:00,
2013-01-29 19:13:00,26.0,20.7,29.71,WSW,247,0.0,3.0,80,0.00,,,0.00,Weather View 32 v70,2013-01-30 00:13:00,
2013-01-29 19:18:00,27.0,21.4,29.71,WSW,247,0.0,3.0,79,0.00,,,0.00,Weather View 32 v70,2013-01-30 00:18:00,
2013-01-29 19:23:00,26.0,20.4,29.71,WSW,247,0.0,3.0,79,0.00,,,0.00,Weather View 32 v70,2013-01-30 00:23:00,
2013-01-29 19:28:00,26.0,20.4,29.71,WSW,247,0.0,3.0,79,0.00,,,0.00,Weather View 32 v70,2013-01-30 00:28:00,
2013-01-29 19:33:00,26.0,20.7,29.72,WSW,247,0.0,3.0,80,0.00,,,0.00,Weather View 32 v70,2013-01-30 00:33:00,
2013-01-29 19:38:00,26.0,20.7,29.72,WSW,247,0.0,3.0,80,0.00,,,0.00,Weather View 32 v70,2013-01-30 00:38:00,
2013-01-29 19:43:00,26.0,21.0,29.73,WSW,247,0.0,3.0,81,0.00,,,0.00,Weather View 32 v70,2013-01-30 00:43:00,
2013-01-29 19:48:00,26.0,21.0,29.73,WSW,247,1.0,3.0,81,0.00,,,0.00,Weather View 32 v70,2013-01-30 00:48:00,
2013-01-29 19:53:00,26.0,21.0,29.74,WNW,292,3.0,3.0,81,0.00,,,0.00,Weather View 32 v70,2013-01-30 00:53:00,
2013-01-29 19:58:00,27.0,21.7,29.75,WNW,292,0.0,4.0,80,0.00,,,0.00,Weather View 32 v70,2013-01-30 00:58:00,
2013-01-29 20:03:00,27.0,21.7,29.75,WNW,292,0.0,4.0,80,0.00,,,0.00,Weather View 32 v70,2013-01-30 01:03:00,
2013-01-29 20:08:00,27.0,21.4,29.75,WNW,292,0.0,4.0,79,0.00,,,0.00,Weather View 32 v70,2013-01-30 01:08:00,
2013-01-29 20:13:00,27.0,21.1,29.75,NNE,22,0.0,4.0,78,0.00,,,0.00,Weather View 32 v70,2013-01-30 01:13:00,
2013-01-29 20:18:00,26.0,20.4,29.75,NNE,22,0.0,4.0,79,0.00,,,0.00,Weather View 32 v70,2013-01-30 01:18:00,
2013-01-29 20:23:00,26.0,20.4,29.75,NNE,22,0.0,4.0,79,0.00,,,0.00,Weather View 32 v70,2013-01-30 01:23:00,
2013-01-29 20:28:00,26.0,20.4,29.74,NNE,22,0.0,4.0,79,0.00,,,0.00,Weather View 32 v70,2013-01-30 01:28:00,
2013-01-29 20:33:00,27.0,21.1,29.74,NNE,22,0.0,4.0,78,0.00,,,0.00,Weather View 32 v70,2013-01-30 01:33:00,
2013-01-29 20:38:00,27.0,21.1,29.74,NNE,22,0.0,4.0,78,0.00,,,0.00,Weather View 32 v70,2013-01-30 01:38:00,
2013-01-29 20:43:00,27.0,21.1,29.74,NNE,22,0.0,4.0,78,0.00,,,0.00,Weather View 32 v70,2013-01-30 01:43:00,
2013-01-29 20:48:00,27.0,21.1,29.74,NNE,22,0.0,4.0,78,0.00,,,0.00,Weather View 32 v70,2013-01-30 01:48:00,
2013-01-29 20:53:00,27.0,21.1,29.75,NNE,22,0.0,4.0,78,0.00,,,0.00,Weather View 32 v70,2013-01-30 01:53:00,
2013-01-29 20:58:00,27.0,21.1,29.75,NNE,22,0.0,4.0,78,0.00,,,0.00,Weather View 32 v70,2013-01-30 01:58:00,
2013-01-29 21:03:00,27.0,21.1,29.75,NNE,22,0.0,4.0,78,0.00,,,0.00,Weather View 32 v70,2013-01-30 02:03:00,
2013-01-29 21:08:00,28.0,22.0,29.75,NNE,22,0.0,4.0,78,0.00,,,0.00,Weather View 32 v70,2013-01-30 02:08:00,
2013-01-29 21:13:00,28.0,21.7,29.75,NNE,22,0.0,1.0,77,0.00,,,0.00,Weather View 32 v70,2013-01-30 02:13:00,
2013-01-29 21:18:00,28.0,21.7,29.74,SSE,157,1.0,2.0,77,0.00,,,0.00,Weather View 32 v70,2013-01-30 02:18:00,
2013-01-29 21:23:00,28.0,21.7,29.75,South,180,2.0,2.0,77,0.00,,,0.00,Weather View 32 v70,2013-01-30 02:23:00,
2013-01-29 21:28:00,28.0,21.4,29.74,South,180,0.0,3.0,76,0.00,,,0.00,Weather View 32 v70,2013-01-30 02:28:00,
2013-01-29 21:33:00,29.0,20.4,29.74,SE,135,5.0,6.0,70,0.00,,,0.00,Weather View 32 v70,2013-01-30 02:33:00,
2013-01-29 21:38:00,30.0,19.7,29.74,SSE,157,3.0,7.0,65,0.00,,,0.00,Weather View 32 v70,2013-01-30 02:38:00,
2013-01-29 21:43:00,30.0,19.3,29.74,SE,135,6.0,7.0,64,0.00,,,0.00,Weather View 32 v70,2013-01-30 02:43:00,
2013-01-29 21:48:00,30.0,18.9,29.75,SE,135,4.0,7.0,63,0.00,,,0.00,Weather View 32 v70,2013-01-30 02:48:00,
2013-01-29 21:53:00,30.0,18.9,29.75,SSE,157,0.0,7.0,63,0.00,,,0.00,Weather View 32 v70,2013-01-30 02:53:00,
2013-01-29 21:58:00,30.0,19.7,29.75,West,270,0.0,7.0,65,0.00,,,0.00,Weather View 32 v70,2013-01-30 02:58:00,
2013-01-29 22:03:00,30.0,20.0,29.75,West,270,0.0,7.0,66,0.00,,,0.00,Weather View 32 v70,2013-01-30 03:03:00,
2013-01-29 22:08:00,30.0,20.0,29.75,West,270,0.0,7.0,66,0.00,,,0.00,Weather View 32 v70,2013-01-30 03:08:00,
2013-01-29 22:13:00,29.0,18.7,29.75,SW,225,3.0,7.0,65,0.00,,,0.00,Weather View 32 v70,2013-01-30 03:13:00,
2013-01-29 22:18:00,30.0,18.9,29.75,SSE,157,0.0,7.0,63,0.00,,,0.00,Weather View 32 v70,2013-01-30 03:18:00,
2013-01-29 22:23:00,30.0,18.6,29.75,SE,135,0.0,7.0,62,0.00,,,0.00,Weather View 32 v70,2013-01-30 03:23:00,
2013-01-29 22:28:00,30.0,18.6,29.75,SSE,157,1.0,7.0,62,0.00,,,0.00,Weather View 32 v70,2013-01-30 03:28:00,
2013-01-29 22:33:00,30.0,18.6,29.76,South,180,3.0,7.0,62,0.00,,,0.00,Weather View 32 v70,2013-01-30 03:33:00,
2013-01-29 22:38:00,30.0,18.6,29.75,SSW,202,1.0,7.0,62,0.00,,,0.00,Weather View 32 v70,2013-01-30 03:38:00,
2013-01-29 22:43:00,30.0,18.9,29.75,SSE,157,3.0,7.0,63,0.00,,,0.00,Weather View 32 v70,2013-01-30 03:43:00,
2013-01-29 22:48:00,30.0,18.9,29.75,SSE,157,5.0,7.0,63,0.00,,,0.00,Weather View 32 v70,2013-01-30 03:48:00,
2013-01-29 22:53:00,30.0,18.9,29.75,SE,135,2.0,6.0,63,0.00,,,0.00,Weather View 32 v70,2013-01-30 03:53:00,
2013-01-29 22:58:00,30.0,18.9,29.75,SE,135,2.0,6.0,63,0.00,,,0.00,Weather View 32 v70,2013-01-30 03:58:00,
2013-01-29 23:03:00,30.0,18.9,29.75,South,180,3.0,6.0,63,0.00,,,0.00,Weather View 32 v70,2013-01-30 04:03:00,
2013-01-29 23:08:00,30.0,20.0,29.74,South,180,2.0,6.0,66,0.00,,,0.00,Weather View 32 v70,2013-01-30 04:08:00,
2013-01-29 23:13:00,30.0,20.4,29.75,South,180,1.0,6.0,67,0.00,,,0.00,Weather View 32 v70,2013-01-30 04:13:00,
2013-01-29 23:18:00,30.0,20.7,29.75,South,180,1.0,6.0,68,0.00,,,0.00,Weather View 32 v70,2013-01-30 04:18:00,
2013-01-29 23:23:00,30.0,21.4,29.74,South,180,1.0,6.0,70,0.00,,,0.00,Weather View 32 v70,2013-01-30 04:23:00,
2013-01-29 23:28:00,30.0,21.4,29.76,South,180,0.0,6.0,70,0.00,,,0.00,Weather View 32 v70,2013-01-30 04:28:00,
2013-01-29 23:33:00,30.0,21.1,29.74,South,180,0.0,6.0,69,0.00,,,0.00,Weather View 32 v70,2013-01-30 04:33:00,
2013-01-29 23:38:00,30.0,21.1,29.74,South,180,1.0,6.0,69,0.00,,,0.00,Weather View 32 v70,2013-01-30 04:38:00,
2013-01-29 23:43:00,30.0,21.1,29.73,SE,135,1.0,6.0,69,0.00,,,0.00,Weather View 32 v70,2013-01-30 04:43:00,
2013-01-29 23:48:00,30.0,21.1,29.73,South,180,3.0,6.0,69,0.00,,,0.00,Weather View 32 v70,2013-01-30 04:48:00,
2013-01-29 23:53:00,30.0,21.4,29.73,South,180,1.0,4.0,70,0.00,,,0.00,Weather View 32 v70,2013-01-30 04:53:00,
2013-01-29 23:58:00,30.0,21.7,29.75,SSE,157,4.0,6.0,71,0.00,,,0.00,Weather View 32 v70,2013-01-30 04:58:00,